createdAt,value
2019-01-05T00:01:13.805Z,39.50
2019-01-05T00:03:43.888Z,37.47
2019-01-05T00:06:17.075Z,39.43
2019-01-05T00:08:56.507Z,40.30
2019-01-05T00:11:35.748Z,39.77
2019-01-05T00:14:08.887Z,37.40
2019-01-05T00:16:54.848Z,36.40
2019-01-05T00:19:40.693Z,37.97
2019-01-05T00:22:11.332Z,34.37
2019-01-05T00:24:47.799Z,37.93
2019-01-05T00:27:33.256Z,38.23
2019-01-05T00:30:04.120Z,36.93
2019-01-05T00:32:40.768Z,35.70
2019-01-05T00:35:37.929Z,36.80
2019-01-05T00:38:12.315Z,35.10
2019-01-05T00:40:58.929Z,32.60
2019-01-05T00:43:38.063Z,33.13
2019-01-05T00:46:12.360Z,32.40
2019-01-05T00:48:45.104Z,34.00
2019-01-05T00:51:23.396Z,32.87
2019-01-05T00:54:06.381Z,32.23
2019-01-05T00:56:53.387Z,33.40
2019-01-05T00:59:43.304Z,31.53
2019-01-05T01:02:16.299Z,31.43
2019-01-05T01:05:02.935Z,30.20
2019-01-05T01:07:35.787Z,31.37
2019-01-05T01:10:12.707Z,32.27
2019-01-05T01:12:48.943Z,30.43
2019-01-05T01:15:19.127Z,28.73
2019-01-05T01:18:01.256Z,28.83
2019-01-05T01:20:48.348Z,28.20
2019-01-05T01:23:30.755Z,24.90
2019-01-05T01:26:03.933Z,28.57
2019-01-05T01:28:40.664Z,29.10
2019-01-05T01:31:11.441Z,29.53
2019-01-05T01:33:53.706Z,29.07
2019-01-05T01:36:35.954Z,26.37
2019-01-05T01:39:23.577Z,27.80
2019-01-05T01:41:59.569Z,27.93
2019-01-05T01:44:38.296Z,27.50
2019-01-05T01:47:12.863Z,28.10
2019-01-05T01:49:55.071Z,28.77
2019-01-05T01:52:43.221Z,28.57
2019-01-05T01:55:31.622Z,28.43
2019-01-05T01:58:19.861Z,26.97
2019-01-05T02:01:06.504Z,28.27
2019-01-05T02:03:36.946Z,27.77
2019-01-05T02:06:24.326Z,28.27
2019-01-05T02:09:11.951Z,28.53
2019-01-05T02:11:50.019Z,28.77
2019-01-05T02:14:28.897Z,29.43
2019-01-05T02:17:21.428Z,30.13
2019-01-05T02:20:22.029Z,26.43
2019-01-05T02:23:45.108Z,27.13
2019-01-05T02:26:45.106Z,25.47
2019-01-05T02:29:48.129Z,24.33
2019-01-05T02:32:39.027Z,23.30
2019-01-05T02:35:30.042Z,21.97
2019-01-05T02:38:31.506Z,19.90
2019-01-05T02:41:19.568Z,21.67
2019-01-05T02:44:16.706Z,20.43
2019-01-05T02:47:12.345Z,20.63
2019-01-05T02:50:18.794Z,20.67
2019-01-05T02:53:30.996Z,18.43
2019-01-05T02:56:30.006Z,19.37
2019-01-05T02:59:30.530Z,20.67
2019-01-05T03:02:36.579Z,20.03
2019-01-05T03:05:32.605Z,21.87
2019-01-05T03:08:33.162Z,21.23
2019-01-05T03:11:30.467Z,22.73
2019-01-05T03:14:31.946Z,21.97
2019-01-05T03:17:26.119Z,21.00
2019-01-05T03:20:22.245Z,20.57
2019-01-05T03:23:07.172Z,23.10
2019-01-05T03:25:40.360Z,20.87
2019-01-05T03:28:31.505Z,21.77
2019-01-05T03:31:38.826Z,22.57
2019-01-05T03:34:52.239Z,21.97
2019-01-05T03:37:46.016Z,20.43
2019-01-05T03:40:53.272Z,20.33
2019-01-05T03:43:50.348Z,19.97
2019-01-05T03:47:02.690Z,21.43
2019-01-05T03:49:56.596Z,18.97
2019-01-05T03:52:29.788Z,18.13
2019-01-05T03:55:25.012Z,18.87
2019-01-05T03:58:24.148Z,19.20
2019-01-05T04:01:23.250Z,19.17
2019-01-05T04:04:19.356Z,18.83
2019-01-05T04:07:11.564Z,17.80
2019-01-05T04:09:52.992Z,18.73
2019-01-05T04:12:50.086Z,16.13
2019-01-05T04:15:38.516Z,15.90
2019-01-05T04:18:32.688Z,15.77
2019-01-05T04:21:36.073Z,16.73
2019-01-05T04:24:42.417Z,17.33
2019-01-05T04:27:35.333Z,17.07
2019-01-05T04:30:20.378Z,16.53
2019-01-05T04:33:14.232Z,15.57
2019-01-05T04:36:01.851Z,15.83
2019-01-05T04:39:17.121Z,16.20
2019-01-05T04:42:06.645Z,15.87
2019-01-05T04:45:08.438Z,16.03
2019-01-05T04:48:07.036Z,15.63
2019-01-05T04:50:55.349Z,14.50
2019-01-05T04:53:37.299Z,15.90
2019-01-05T04:56:43.558Z,16.07
2019-01-05T04:59:50.065Z,15.30
2019-01-05T05:02:52.096Z,14.87
2019-01-05T05:05:48.981Z,15.43
2019-01-05T05:08:47.795Z,15.23
2019-01-05T05:11:44.635Z,15.77
2019-01-05T05:14:43.057Z,15.90
2019-01-05T05:17:32.769Z,15.60
2019-01-05T05:20:37.732Z,13.20
2019-01-05T05:23:38.153Z,15.67
2019-01-05T05:26:19.873Z,16.47
2019-01-05T05:29:01.172Z,15.87
2019-01-05T05:31:40.128Z,18.27
2019-01-05T05:34:47.925Z,16.40
2019-01-05T05:37:38.816Z,17.07
2019-01-05T05:40:35.829Z,17.10
2019-01-05T05:43:48.611Z,17.80
2019-01-05T05:47:10.707Z,17.23
2019-01-05T05:49:52.398Z,17.50
2019-01-05T05:52:55.731Z,15.97
2019-01-05T05:55:50.798Z,15.07
2019-01-05T05:58:57.558Z,17.50
2019-01-05T06:01:36.508Z,14.20
2019-01-05T06:04:36.959Z,15.67
2019-01-05T06:07:59.519Z,15.70
2019-01-05T06:10:49.185Z,14.53
2019-01-05T06:13:41.784Z,14.43
2019-01-05T06:16:38.973Z,16.60
2019-01-05T06:19:46.765Z,16.47
2019-01-05T06:22:28.400Z,15.13
2019-01-05T06:25:39.405Z,14.47
2019-01-05T06:28:31.786Z,15.10
2019-01-05T06:31:11.000Z,13.30
2019-01-05T06:34:04.578Z,12.37
2019-01-05T06:37:10.849Z,13.20
2019-01-05T06:40:22.163Z,12.23
2019-01-05T06:43:21.937Z,13.00
2019-01-05T06:46:31.577Z,11.80
2019-01-05T06:49:36.190Z,13.07
2019-01-05T06:52:48.145Z,11.50
2019-01-05T06:55:53.009Z,11.23
2019-01-05T06:58:58.293Z,10.20
2019-01-05T07:01:52.308Z,10.30
2019-01-05T07:04:49.208Z,11.60
2019-01-05T07:08:00.432Z,10.63
2019-01-05T07:11:12.910Z,11.40
2019-01-05T07:14:06.372Z,10.67
2019-01-05T07:17:03.826Z,9.20
2019-01-05T07:19:59.527Z,10.30
2019-01-05T07:22:41.157Z,9.57
2019-01-05T07:25:47.563Z,8.97
2019-01-05T07:29:09.093Z,8.47
2019-01-05T07:32:10.863Z,10.63
2019-01-05T07:35:00.882Z,10.47
2019-01-05T07:37:45.145Z,8.73
2019-01-05T07:40:51.604Z,9.37
2019-01-05T07:43:59.279Z,9.10
2019-01-05T07:46:59.650Z,7.83
2019-01-05T07:49:58.121Z,8.73
2019-01-05T07:52:49.464Z,8.20
2019-01-05T07:55:55.907Z,8.63
2019-01-05T07:58:45.068Z,9.07
2019-01-05T08:02:08.204Z,8.83
2019-01-05T08:05:31.312Z,8.83
2019-01-05T08:08:30.549Z,7.53
2019-01-05T08:11:40.566Z,8.20
2019-01-05T08:14:25.309Z,8.43
2019-01-05T08:17:20.830Z,8.07
2019-01-05T08:20:19.518Z,7.80
2019-01-05T08:26:52.790Z,7.47
2019-01-05T08:29:57.692Z,7.00
2019-01-05T08:33:11.488Z,6.43
2019-01-05T08:36:18.841Z,5.43
2019-01-05T08:39:15.497Z,5.60
2019-01-05T08:42:14.311Z,5.33
2019-01-05T08:45:02.635Z,4.53
2019-01-05T08:48:10.163Z,5.70
2019-01-05T08:50:48.337Z,5.63
2019-01-05T08:54:10.912Z,5.20
2019-01-05T08:56:49.752Z,4.90
2019-01-05T08:59:54.683Z,5.13
2019-01-05T09:03:10.614Z,5.30
2019-01-05T09:06:11.764Z,4.80
2019-01-05T09:09:21.286Z,5.40
2019-01-05T09:12:30.588Z,5.87
2019-01-05T09:15:26.114Z,5.50
2019-01-05T09:18:37.087Z,4.90
2019-01-05T09:21:28.471Z,5.40
2019-01-05T09:24:07.700Z,5.03
2019-01-05T09:27:03.427Z,5.80
2019-01-05T09:29:54.461Z,5.93
2019-01-05T09:32:42.760Z,5.10
2019-01-05T09:35:30.911Z,5.23
2019-01-05T09:38:27.530Z,5.03
2019-01-05T09:41:09.802Z,5.53
2019-01-05T09:44:28.370Z,6.37
2019-01-05T09:47:10.558Z,6.40
2019-01-05T09:50:11.784Z,5.17
2019-01-05T09:52:54.131Z,5.10
2019-01-05T09:56:16.904Z,5.47
2019-01-05T09:59:18.293Z,6.50
2019-01-05T10:02:18.845Z,6.43
2019-01-05T10:05:04.140Z,5.90
2019-01-05T10:08:01.544Z,6.47
2019-01-05T10:11:15.880Z,6.23
2019-01-05T10:14:23.847Z,6.13
2019-01-05T10:17:18.366Z,6.37
2019-01-05T10:20:32.372Z,6.27
2019-01-05T10:23:38.657Z,6.40
2019-01-05T10:26:37.469Z,6.67
2019-01-05T10:29:42.410Z,6.03
2019-01-05T10:32:55.413Z,6.17
2019-01-05T10:35:46.654Z,6.90
2019-01-05T10:39:11.724Z,6.57
2019-01-05T10:42:08.837Z,7.40
2019-01-05T10:45:11.400Z,6.67
2019-01-05T10:48:08.553Z,6.43
2019-01-05T10:51:20.598Z,6.60
2019-01-05T10:54:22.744Z,5.63
2019-01-05T10:57:28.928Z,6.27
2019-01-05T11:00:10.773Z,5.17
2019-01-05T11:03:01.332Z,6.20
2019-01-05T11:05:42.660Z,6.17
2019-01-05T11:08:36.860Z,5.97
2019-01-05T11:11:12.682Z,5.70
2019-01-05T11:14:18.803Z,5.83
2019-01-05T11:17:11.102Z,5.23
2019-01-05T11:20:09.937Z,5.40
2019-01-05T11:23:07.017Z,5.80
2019-01-05T11:26:05.663Z,5.03
2019-01-05T11:28:56.384Z,4.93
2019-01-05T11:32:04.175Z,5.13
2019-01-05T11:34:43.051Z,5.07
2019-01-05T11:37:44.383Z,5.47
2019-01-05T11:40:35.548Z,4.90
2019-01-05T11:43:28.535Z,5.33
2019-01-05T11:46:16.906Z,5.77
2019-01-05T11:49:09.894Z,4.97
2019-01-05T11:52:22.067Z,4.80
2019-01-05T11:55:08.453Z,5.27
2019-01-05T11:57:41.720Z,5.70
2019-01-05T12:00:46.058Z,5.77
2019-01-05T12:04:05.845Z,5.57
2019-01-05T12:07:04.416Z,6.43
2019-01-05T12:09:52.231Z,5.27
2019-01-05T12:12:54.092Z,5.80
2019-01-05T12:15:53.023Z,6.27
2019-01-05T12:19:07.111Z,6.17
2019-01-05T12:22:15.109Z,5.77
2019-01-05T12:25:19.648Z,5.87
2019-01-05T12:28:01.020Z,6.07
2019-01-05T12:30:55.478Z,6.27
2019-01-05T12:33:43.603Z,6.30
2019-01-05T12:36:31.572Z,6.63
2019-01-05T12:39:28.549Z,6.27
2019-01-05T12:42:38.169Z,7.27
2019-01-05T12:45:50.641Z,7.00
2019-01-05T12:48:55.367Z,7.63
2019-01-05T12:51:48.764Z,7.43
2019-01-05T12:54:47.027Z,6.57
2019-01-05T12:57:42.907Z,7.53
2019-01-05T13:00:24.900Z,7.33
2019-01-05T13:03:23.695Z,8.03
2019-01-05T13:06:39.339Z,8.77
2019-01-05T13:09:48.944Z,8.10
2019-01-05T13:12:41.703Z,8.50
2019-01-05T13:15:38.907Z,7.87
2019-01-05T13:18:45.472Z,7.57
2019-01-05T13:21:30.785Z,7.27
2019-01-05T13:24:18.156Z,8.30
2019-01-05T13:27:19.565Z,8.30
2019-01-05T13:30:01.708Z,7.53
2019-01-05T13:33:10.591Z,7.73
2019-01-05T13:36:31.891Z,6.90
2019-01-05T13:39:30.797Z,6.97
2019-01-05T13:42:37.289Z,7.30
2019-01-05T13:45:43.312Z,7.17
2019-01-05T13:48:31.393Z,6.73
2019-01-05T13:51:46.748Z,6.93
2019-01-05T13:54:19.587Z,7.30
2019-01-05T13:57:02.093Z,6.43
2019-01-05T13:59:35.123Z,6.60
2019-01-05T14:02:05.272Z,7.40
2019-01-05T14:04:53.400Z,7.67
2019-01-05T14:07:53.293Z,7.07
2019-01-05T14:10:23.389Z,6.13
2019-01-05T14:12:59.277Z,6.30
2019-01-05T14:15:29.376Z,6.10
2019-01-05T14:17:59.456Z,6.87
2019-01-05T14:20:29.541Z,7.70
2019-01-05T14:22:59.636Z,6.60
2019-01-05T14:25:32.395Z,8.13
2019-01-05T14:28:08.289Z,7.63
2019-01-05T14:30:54.955Z,7.73
2019-01-05T14:33:28.078Z,7.53
2019-01-05T14:35:58.464Z,7.83
2019-01-05T14:38:44.764Z,7.57
2019-01-05T14:41:14.847Z,7.10
2019-01-05T14:44:01.411Z,7.03
2019-01-05T14:46:31.493Z,6.77
2019-01-05T14:49:10.816Z,7.67
2019-01-05T14:51:57.121Z,8.23
2019-01-05T14:54:43.272Z,8.30
2019-01-05T14:57:13.356Z,8.13
2019-01-05T14:59:46.496Z,7.97
2019-01-05T15:02:16.580Z,9.47
2019-01-05T15:05:32.817Z,8.23
2019-01-05T15:08:05.972Z,8.43
2019-01-05T15:10:48.396Z,7.93
2019-01-05T15:13:34.956Z,8.17
2019-01-05T15:16:21.753Z,8.60
2019-01-05T15:18:54.576Z,8.87
2019-01-05T15:21:33.185Z,8.97
2019-01-05T15:24:21.289Z,9.80
2019-01-05T15:27:03.344Z,10.07
2019-01-05T15:29:35.836Z,9.33
2019-01-05T15:32:14.492Z,9.77
2019-01-05T15:34:53.517Z,8.30
2019-01-05T15:37:39.964Z,10.23
2019-01-05T15:40:10.113Z,9.87
2019-01-05T15:42:49.085Z,8.47
2019-01-05T15:45:34.229Z,8.53
2019-01-05T15:48:20.552Z,9.10
2019-01-05T15:50:53.349Z,9.60
2019-01-05T15:53:26.392Z,9.07
2019-01-05T15:55:56.475Z,9.57
2019-01-05T15:58:43.103Z,9.33
2019-01-05T16:01:22.203Z,8.93
2019-01-05T16:03:58.333Z,9.00
2019-01-05T16:06:46.519Z,9.47
2019-01-05T16:09:33.148Z,8.83
2019-01-05T16:12:09.001Z,8.93
2019-01-05T16:14:44.811Z,8.53
2019-01-05T16:17:17.910Z,8.90
2019-01-05T16:19:57.187Z,8.17
2019-01-05T16:22:45.583Z,9.43
2019-01-05T16:25:31.718Z,9.27
2019-01-05T16:28:01.802Z,9.47
2019-01-05T16:30:38.317Z,9.13
2019-01-05T16:33:11.124Z,9.60
2019-01-05T16:35:41.282Z,10.20
2019-01-05T16:38:16.890Z,10.53
2019-01-05T16:40:46.997Z,10.80
2019-01-05T16:43:23.045Z,11.17
2019-01-05T16:46:08.292Z,10.67
2019-01-05T16:48:44.120Z,13.07
2019-01-05T16:51:30.526Z,12.83
2019-01-05T16:54:09.656Z,11.17
2019-01-05T16:56:42.680Z,12.87
2019-01-05T16:59:21.539Z,11.30
2019-01-05T17:01:51.677Z,12.80
2019-01-05T17:04:36.836Z,13.30
2019-01-05T17:07:23.404Z,10.87
2019-01-05T17:09:53.577Z,11.17
2019-01-05T17:12:39.125Z,11.37
2019-01-05T17:15:12.319Z,10.57
2019-01-05T17:17:54.588Z,11.63
2019-01-05T17:20:27.648Z,10.53
2019-01-05T17:22:57.744Z,10.30
2019-01-05T17:25:30.529Z,9.33
2019-01-05T17:28:12.947Z,9.63
2019-01-05T17:31:01.285Z,9.77
2019-01-05T17:33:40.653Z,12.37
2019-01-05T17:36:10.740Z,11.50
2019-01-05T17:38:56.884Z,12.67
2019-01-05T17:41:45.416Z,11.67
2019-01-05T17:44:15.609Z,12.93
2019-01-05T17:46:48.731Z,14.07
2019-01-05T17:49:27.840Z,11.40
2019-01-05T17:52:00.980Z,12.13
2019-01-05T17:54:31.170Z,12.77
2019-01-05T17:57:13.184Z,13.40
2019-01-05T17:59:43.465Z,14.53
2019-01-05T18:02:30.128Z,13.87
2019-01-05T18:05:15.311Z,14.07
2019-01-05T18:08:03.221Z,15.17
2019-01-05T18:10:39.320Z,15.63
2019-01-05T18:13:12.431Z,15.47
2019-01-05T18:15:59.117Z,14.73
2019-01-05T18:18:38.013Z,16.63
2019-01-05T18:21:08.206Z,17.70
2019-01-05T18:23:38.385Z,17.13
2019-01-05T18:26:17.582Z,17.00
2019-01-05T18:28:53.883Z,18.50
2019-01-05T18:31:40.576Z,17.57
2019-01-05T18:34:27.065Z,16.57
2019-01-05T18:36:59.864Z,16.87
2019-01-05T18:39:29.937Z,17.67
2019-01-05T18:42:05.975Z,16.70
2019-01-05T18:44:36.113Z,16.70
2019-01-05T18:47:11.656Z,16.93
2019-01-05T18:49:44.486Z,16.43
2019-01-05T18:52:24.986Z,14.33
2019-01-05T18:55:04.073Z,15.27
2019-01-05T18:57:51.999Z,15.53
2019-01-05T19:00:24.795Z,16.33
2019-01-05T19:03:06.874Z,17.50
2019-01-05T19:05:55.332Z,15.80
2019-01-05T19:08:31.502Z,17.90
2019-01-05T19:11:13.764Z,16.70
2019-01-05T19:13:58.930Z,16.97
2019-01-05T19:16:37.612Z,16.10
2019-01-05T19:19:07.735Z,16.30
2019-01-05T19:21:40.762Z,16.47
2019-01-05T19:24:13.572Z,16.13
2019-01-05T19:26:59.943Z,14.17
2019-01-05T19:29:45.172Z,15.40
2019-01-05T19:32:15.394Z,15.00
2019-01-05T19:34:48.065Z,14.97
2019-01-05T19:37:18.250Z,15.47
2019-01-05T19:40:03.272Z,12.87
2019-01-05T19:42:33.365Z,13.80
2019-01-05T19:45:12.299Z,14.43
2019-01-05T19:48:00.802Z,13.33
2019-01-05T19:50:30.900Z,14.07
2019-01-05T19:53:17.590Z,14.43
2019-01-05T19:56:04.155Z,12.93
2019-01-05T19:58:46.306Z,14.77
2019-01-05T20:01:19.168Z,14.53
2019-01-05T20:03:55.016Z,15.37
2019-01-05T20:06:27.851Z,14.63
2019-01-05T20:09:00.658Z,13.93
2019-01-05T20:11:46.099Z,14.47
2019-01-05T20:14:16.187Z,14.93
2019-01-05T20:16:46.260Z,14.90
2019-01-05T20:19:19.325Z,16.57
2019-01-05T20:22:07.449Z,15.03
2019-01-05T20:24:43.624Z,14.77
2019-01-05T20:27:19.504Z,14.83
2019-01-05T20:29:52.337Z,14.47
2019-01-05T20:32:28.192Z,13.57
2019-01-05T20:34:58.296Z,13.33
2019-01-05T20:37:46.311Z,12.63
2019-01-05T20:40:16.408Z,12.47
2019-01-05T20:42:58.380Z,13.23
2019-01-05T20:45:44.535Z,13.00
2019-01-05T20:48:14.706Z,9.70
2019-01-05T20:50:53.836Z,13.07
2019-01-05T20:53:40.168Z,12.60
2019-01-05T20:56:26.672Z,12.03
2019-01-05T20:59:02.552Z,11.87
2019-01-05T21:01:32.652Z,12.37
2019-01-05T21:04:19.095Z,12.13
2019-01-05T21:06:49.206Z,12.73
2019-01-05T21:09:22.345Z,12.23
2019-01-05T21:11:58.509Z,13.37
2019-01-05T21:14:40.695Z,11.63
2019-01-05T21:17:16.936Z,12.63
2019-01-05T21:20:05.029Z,12.00
2019-01-05T21:22:47.183Z,11.83
2019-01-05T21:25:29.281Z,11.97
2019-01-05T21:28:14.403Z,12.30
2019-01-05T21:30:44.483Z,11.63
2019-01-05T21:33:29.309Z,10.47
2019-01-05T21:36:15.752Z,11.43
2019-01-05T21:39:02.421Z,11.73
2019-01-05T21:41:49.036Z,12.27
2019-01-05T21:44:37.477Z,13.03
2019-01-05T21:47:07.894Z,13.27
2019-01-05T21:49:54.501Z,13.33
2019-01-05T21:52:27.776Z,13.90
2019-01-05T21:55:04.074Z,13.00
2019-01-05T21:57:50.200Z,12.60
2019-01-05T22:00:38.292Z,12.90
2019-01-05T22:03:11.150Z,11.07
2019-01-05T22:05:56.678Z,12.80
2019-01-05T22:08:29.746Z,12.77
2019-01-05T22:11:12.061Z,12.93
2019-01-05T22:13:42.161Z,13.67
2019-01-05T22:16:28.677Z,14.03
2019-01-05T22:19:15.244Z,14.50
2019-01-05T22:21:51.545Z,14.20
2019-01-05T22:24:21.625Z,13.80
2019-01-05T22:27:06.523Z,14.93
2019-01-05T22:29:45.468Z,14.50
2019-01-05T22:32:33.905Z,14.87
2019-01-05T22:35:12.963Z,13.17
2019-01-05T22:37:49.256Z,13.33
2019-01-05T22:40:22.215Z,13.17
2019-01-05T22:43:04.629Z,13.87
2019-01-05T22:45:40.376Z,13.97
2019-01-05T22:48:26.994Z,14.67
2019-01-05T22:51:00.046Z,13.93
2019-01-05T22:53:45.226Z,13.90
2019-01-05T22:56:21.396Z,13.20
2019-01-05T22:58:54.369Z,13.87
2019-01-05T23:01:39.573Z,12.87
2019-01-05T23:04:18.629Z,13.90
2019-01-05T23:07:00.805Z,12.77
2019-01-05T23:09:46.206Z,13.20
2019-01-05T23:12:21.853Z,10.90
2019-01-05T23:14:51.980Z,11.97
2019-01-05T23:17:25.071Z,12.07
2019-01-05T23:20:01.125Z,12.17
2019-01-05T23:22:43.254Z,11.33
2019-01-05T23:25:16.308Z,10.70
2019-01-05T23:27:49.143Z,10.93
2019-01-05T23:30:19.246Z,10.63
2019-01-05T23:33:05.549Z,12.00
2019-01-05T23:35:41.384Z,10.67
2019-01-05T23:38:26.482Z,11.83
2019-01-05T23:41:12.945Z,10.63
2019-01-05T23:43:48.812Z,9.87
2019-01-05T23:46:30.878Z,10.07
2019-01-05T23:49:13.009Z,11.97
2019-01-05T23:51:48.911Z,10.27
2019-01-05T23:54:37.210Z,9.37
2019-01-05T23:57:23.611Z,10.40
2019-01-05T23:59:53.752Z,9.23
